CMA CGM Volga — 5BJR2 — position and weather

sailwx.info

Track history (hours):
 
Tides and Currents Weather Stations Pressure Air Temp Water Temp Dewpoint Dewpoint Depression Visibility Wind Speed Wind Dir Waves Ship Positions

CMA CGM Volga

Last reported at 2014-Oct-22 14:33 UTC. Time now 2014-Oct-23 03:01 UTC.
Position N 59°35' E 024°52'.

Length 184 m; draft 7.9 m.

Type: Ship (hazmat cat A). MMSI: 212456000.

Date/timePositionNaut miles runAvg speedWind from/ knotsBaromVisibWave heightAir tempDewpointWater temp
2014-Oct-22 14:33N 59°35' E 024°52'1111.0
2014-Oct-22 13:33N 59°42' E 024°35'1111.2
2014-Oct-22 12:33N 59°41' E 024°14'11 9.3
2014-Oct-22 11:24N 59°35' E 023°55'8 1.5
2014-Oct-22 06:14N 59°35' E 023°40'30812.0
2014-Oct-21 04:33N 55°00' E 019°19'1212.1
2014-Oct-21 03:33N 54°49' E 019°14'1312.7
2014-Oct-21 02:33N 54°36' E 019°07'1312.8
2014-Oct-21 01:33N 54°26' E 018°55'7 7.5
2014-Oct-21 00:33N 54°23' E 018°43'0 0.2
2014-Oct-20 23:31N 54°23' E 018°43'0 0.0
2014-Oct-20 22:31N 54°23' E 018°43'0 0.0
2014-Oct-20 21:25N 54°23' E 018°43'0 0.0
2014-Oct-20 20:31N 54°23' E 018°43'0 0.0
2014-Oct-20 19:33N 54°23' E 018°43'0 0.0
2014-Oct-20 18:33N 54°23' E 018°43'0 0.0
2014-Oct-20 17:33N 54°23' E 018°43'0 0.0
2014-Oct-20 16:33N 54°23' E 018°43'0 0.0
2014-Oct-20 15:33N 54°23' E 018°43'0 0.0
2014-Oct-20 14:33N 54°23' E 018°43'0 0.0
2014-Oct-20 13:33N 54°23' E 018°43'0 0.0
2014-Oct-20 12:33N 54°23' E 018°43'0 0.0
2014-Oct-20 11:33N 54°23' E 018°43'0 0.0
2014-Oct-20 10:33N 54°23' E 018°43'0 0.0
2014-Oct-20 09:33N 54°23' E 018°43'0 0.0
2014-Oct-20 08:33N 54°23' E 018°43'0 0.0
2014-Oct-20 07:33N 54°23' E 018°43'0 0.0
2014-Oct-20 06:33N 54°23' E 018°43'2 1.8
2014-Oct-20 05:33N 54°24' E 018°45'8 8.1
2014-Oct-20 04:33N 54°28' E 018°57'1212.3
2014-Oct-20 03:33N 54°40' E 019°03'1312.8
2014-Oct-20 02:33N 54°53' E 019°09'1212.4
2014-Oct-20 01:33N 55°04' E 019°18'  
2014-Oct-17 11:17N 59°37' E 023°21'1214.6
2014-Oct-17 10:26N 59°41' E 023°45'1814.7
2014-Oct-17 09:12N 59°46' E 024°19'1414.5
2014-Oct-17 08:14N 59°49' E 024°46'4715.3
2014-Oct-17 05:07N 59°59' E 026°19'916.5
2014-Oct-17 04:33N 60°01' E 026°37'109 9.0
2014-Oct-16 16:24N 59°54' E 030°14'0 0.0
2014-Oct-16 15:30N 59°54' E 030°14'0 0.0
2014-Oct-16 12:19N 59°54' E 030°14'1 0.1
2014-Oct-15 15:13N 59°53' E 030°12'0 0.7
2014-Oct-15 14:33N 59°53' E 030°11'9913.9
2014-Oct-15 07:26N 59°58' E 026°55'1313.1
2014-Oct-15 06:28N 59°58' E 026°29'8 9.2
2014-Oct-15 05:33N 60°01' E 026°45'8 0.3
2014-Oct-14 00:31N 59°58' E 027°00'1818.4
2014-Oct-13 23:31N 59°57' E 026°23'5618.9
2014-Oct-13 20:34N 59°44' E 024°35'2219.2
2014-Oct-13 19:26N 59°38' E 023°54'31717.7
2014-Oct-13 01:31N 54°59' E 019°19'1717.5
2014-Oct-13 00:33N 54°43' E 019°10'1817.5
2014-Oct-12 23:33N 54°27' E 018°59'10 9.8
2014-Oct-12 22:34N 54°23' E 018°43'0 0.1
2014-Oct-12 21:31N 54°23' E 018°43'0 0.0
2014-Oct-12 20:34N 54°23' E 018°43'0 0.0
2014-Oct-12 19:34N 54°23' E 018°43'0 0.0
2014-Oct-12 18:34N 54°23' E 018°43'0 0.0
2014-Oct-12 17:34N 54°23' E 018°43'0 0.0
2014-Oct-12 16:34N 54°23' E 018°43'0 0.0
2014-Oct-12 15:34N 54°23' E 018°43'0 0.0
2014-Oct-12 14:34N 54°23' E 018°43'  
Track history (hours):
 
Tides and Currents Weather Stations Pressure Air Temp Water Temp Dewpoint Dewpoint Depression Visibility Wind Speed Wind Dir Waves Ship Positions

CMA CGM Volga

Last reported at 2014-Oct-22 14:33 UTC. Time now 2014-Oct-23 03:01 UTC.
Position N 59°35' E 024°52'.

Length 184 m; draft 7.9 m.

Type: Ship (hazmat cat A). MMSI: 212456000.

Date/timePositionNaut miles runAvg speedWind from/ knotsBaromVisibWave heightAir tempDewpointWater temp
2014-Oct-22 14:33N 59°35' E 024°52'1111.0
2014-Oct-22 13:33N 59°42' E 024°35'1111.2
2014-Oct-22 12:33N 59°41' E 024°14'11 9.3
2014-Oct-22 11:24N 59°35' E 023°55'8 1.5
2014-Oct-22 06:14N 59°35' E 023°40'30812.0
2014-Oct-21 04:33N 55°00' E 019°19'1212.1
2014-Oct-21 03:33N 54°49' E 019°14'1312.7
2014-Oct-21 02:33N 54°36' E 019°07'1312.8
2014-Oct-21 01:33N 54°26' E 018°55'7 7.5
2014-Oct-21 00:33N 54°23' E 018°43'0 0.2
2014-Oct-20 23:31N 54°23' E 018°43'0 0.0
2014-Oct-20 22:31N 54°23' E 018°43'0 0.0
2014-Oct-20 21:25N 54°23' E 018°43'0 0.0
2014-Oct-20 20:31N 54°23' E 018°43'0 0.0
2014-Oct-20 19:33N 54°23' E 018°43'0 0.0
2014-Oct-20 18:33N 54°23' E 018°43'0 0.0
2014-Oct-20 17:33N 54°23' E 018°43'0 0.0
2014-Oct-20 16:33N 54°23' E 018°43'0 0.0
2014-Oct-20 15:33N 54°23' E 018°43'0 0.0
2014-Oct-20 14:33N 54°23' E 018°43'0 0.0
2014-Oct-20 13:33N 54°23' E 018°43'0 0.0
2014-Oct-20 12:33N 54°23' E 018°43'0 0.0
2014-Oct-20 11:33N 54°23' E 018°43'0 0.0
2014-Oct-20 10:33N 54°23' E 018°43'0 0.0
2014-Oct-20 09:33N 54°23' E 018°43'0 0.0
2014-Oct-20 08:33N 54°23' E 018°43'0 0.0
2014-Oct-20 07:33N 54°23' E 018°43'0 0.0
2014-Oct-20 06:33N 54°23' E 018°43'2 1.8
2014-Oct-20 05:33N 54°24' E 018°45'8 8.1
2014-Oct-20 04:33N 54°28' E 018°57'1212.3
2014-Oct-20 03:33N 54°40' E 019°03'1312.8
2014-Oct-20 02:33N 54°53' E 019°09'1212.4
2014-Oct-20 01:33N 55°04' E 019°18'  
2014-Oct-17 11:17N 59°37' E 023°21'1214.6
2014-Oct-17 10:26N 59°41' E 023°45'1814.7
2014-Oct-17 09:12N 59°46' E 024°19'1414.5
2014-Oct-17 08:14N 59°49' E 024°46'4715.3
2014-Oct-17 05:07N 59°59' E 026°19'916.5
2014-Oct-17 04:33N 60°01' E 026°37'109 9.0
2014-Oct-16 16:24N 59°54' E 030°14'0 0.0
2014-Oct-16 15:30N 59°54' E 030°14'0 0.0
2014-Oct-16 12:19N 59°54' E 030°14'1 0.1
2014-Oct-15 15:13N 59°53' E 030°12'0 0.7
2014-Oct-15 14:33N 59°53' E 030°11'9913.9
2014-Oct-15 07:26N 59°58' E 026°55'1313.1
2014-Oct-15 06:28N 59°58' E 026°29'8 9.2
2014-Oct-15 05:33N 60°01' E 026°45'8 0.3
2014-Oct-14 00:31N 59°58' E 027°00'1818.4
2014-Oct-13 23:31N 59°57' E 026°23'5618.9
2014-Oct-13 20:34N 59°44' E 024°35'2219.2
2014-Oct-13 19:26N 59°38' E 023°54'31717.7
2014-Oct-13 01:31N 54°59' E 019°19'1717.5
2014-Oct-13 00:33N 54°43' E 019°10'1817.5
2014-Oct-12 23:33N 54°27' E 018°59'10 9.8
2014-Oct-12 22:34N 54°23' E 018°43'0 0.1
2014-Oct-12 21:31N 54°23' E 018°43'0 0.0
2014-Oct-12 20:34N 54°23' E 018°43'0 0.0
2014-Oct-12 19:34N 54°23' E 018°43'0 0.0
2014-Oct-12 18:34N 54°23' E 018°43'0 0.0
2014-Oct-12 17:34N 54°23' E 018°43'0 0.0
2014-Oct-12 16:34N 54°23' E 018°43'0 0.0
2014-Oct-12 15:34N 54°23' E 018°43'0 0.0
2014-Oct-12 14:34N 54°23' E 018°43'  

Dump ship's entire track history